createdAt,value
2018-09-01T00:01:00.770Z,3.30
2018-09-01T00:03:29.568Z,2.80
2018-09-01T00:05:58.281Z,2.90
2018-09-01T00:08:27.007Z,2.80
2018-09-01T00:10:55.997Z,2.75
2018-09-01T00:13:24.552Z,3.40
2018-09-01T00:15:53.186Z,2.98
2018-09-01T00:18:21.873Z,2.80
2018-09-01T00:20:50.555Z,3.27
2018-09-01T00:23:19.227Z,3.20
2018-09-01T00:25:55.481Z,3.53
2018-09-01T00:28:23.974Z,2.63
2018-09-01T00:30:52.629Z,3.10
2018-09-01T00:33:21.247Z,3.03
2018-09-01T00:35:49.882Z,3.03
2018-09-01T00:38:23.663Z,3.02
2018-09-01T00:40:52.200Z,3.43
2018-09-01T00:43:20.762Z,3.00
2018-09-01T00:45:49.383Z,3.23
2018-09-01T00:48:17.990Z,3.97
2018-09-01T00:50:46.533Z,3.37
2018-09-01T00:53:15.073Z,3.40
2018-09-01T00:55:43.854Z,3.50
2018-09-01T00:58:12.458Z,3.40
2018-09-01T01:00:41.061Z,3.00
2018-09-01T01:03:09.758Z,3.53
2018-09-01T01:05:38.263Z,3.20
2018-09-01T01:08:06.836Z,3.70
2018-09-01T01:10:35.330Z,3.15
2018-09-01T01:13:03.903Z,3.20
2018-09-01T01:15:32.359Z,3.80
2018-09-01T01:18:01.764Z,3.40
2018-09-01T01:20:30.455Z,3.20
2018-09-01T01:22:58.985Z,3.50
2018-09-01T01:25:27.443Z,3.50
2018-09-01T01:27:56.137Z,3.50
2018-09-01T01:30:24.632Z,3.95
2018-09-01T01:32:53.118Z,3.73
2018-09-01T01:35:21.578Z,3.50
2018-09-01T01:37:51.077Z,4.03
2018-09-01T01:40:19.543Z,3.60
2018-09-01T01:42:48.114Z,3.50
2018-09-01T01:45:16.590Z,4.25
2018-09-01T01:47:45.031Z,3.93
2018-09-01T01:50:13.575Z,4.00
2018-09-01T01:52:42.085Z,4.23
2018-09-01T01:55:10.571Z,4.45
2018-09-01T01:57:44.192Z,4.70
2018-09-01T02:00:13.592Z,4.03
2018-09-01T02:02:42.206Z,4.47
2018-09-01T02:05:15.350Z,3.98
2018-09-01T02:07:43.867Z,4.50
2018-09-01T02:10:12.480Z,3.62
2018-09-01T02:12:41.042Z,3.73
2018-09-01T02:15:09.657Z,3.87
2018-09-01T02:17:38.132Z,3.90
2018-09-01T02:20:06.915Z,3.73
2018-09-01T02:22:35.358Z,4.10
2018-09-01T02:25:03.795Z,4.00
2018-09-01T02:27:32.321Z,4.27
2018-09-01T02:30:00.845Z,4.47
2018-09-01T02:32:29.429Z,4.60
2018-09-01T02:34:57.974Z,4.22
2018-09-01T02:37:26.477Z,3.83
2018-09-01T02:39:55.076Z,4.50
2018-09-01T02:42:23.699Z,3.90
2018-09-01T02:44:52.513Z,4.20
2018-09-01T02:47:21.021Z,3.93
2018-09-01T02:49:49.606Z,4.00
2018-09-01T02:52:18.010Z,4.17
2018-09-01T02:54:46.441Z,4.17
2018-09-01T02:57:15.057Z,3.80
2018-09-01T02:59:43.529Z,4.13
2018-09-01T03:02:12.040Z,5.03
2018-09-01T03:04:40.604Z,3.93
2018-09-01T03:07:08.999Z,4.10
2018-09-01T03:09:37.336Z,3.83
2018-09-01T03:12:05.835Z,4.03
2018-09-01T03:14:34.348Z,4.10
2018-09-01T03:17:03.625Z,4.00
2018-09-01T03:19:32.009Z,4.17
2018-09-01T03:22:00.618Z,3.90
2018-09-01T03:24:29.121Z,3.93
2018-09-01T03:26:58.921Z,4.47
2018-09-01T03:29:27.464Z,3.37
2018-09-01T03:31:56.052Z,4.75
2018-09-01T03:34:24.583Z,4.20
2018-09-01T03:36:54.331Z,3.40
2018-09-01T03:39:22.926Z,3.25
2018-09-01T03:41:51.412Z,4.10
2018-09-01T03:44:20.069Z,3.83
2018-09-01T03:46:48.758Z,4.20
2018-09-01T03:49:17.286Z,4.08
2018-09-01T03:51:45.739Z,3.97
2018-09-01T03:54:14.225Z,4.33
2018-09-01T03:56:42.781Z,4.40
2018-09-01T03:59:11.301Z,3.92
2018-09-01T04:01:39.796Z,3.97
2018-09-01T04:04:08.356Z,3.90
2018-09-01T04:06:37.120Z,4.37
2018-09-01T04:09:06.529Z,3.87
2018-09-01T04:11:35.014Z,4.53
2018-09-01T04:14:03.596Z,4.00
2018-09-01T04:16:32.089Z,4.30
2018-09-01T04:19:05.048Z,4.00
2018-09-01T04:21:33.733Z,4.00
2018-09-01T04:24:02.161Z,4.60
2018-09-01T04:26:30.744Z,3.50
2018-09-01T04:28:59.217Z,3.90
2018-09-01T04:31:27.749Z,3.87
2018-09-01T04:33:56.297Z,3.83
2018-09-01T04:36:24.934Z,4.45
2018-09-01T04:38:53.460Z,3.90
2018-09-01T04:41:21.999Z,4.33
2018-09-01T04:43:50.532Z,4.05
2018-09-01T04:46:19.070Z,4.37
2018-09-01T04:48:48.073Z,4.25
2018-09-01T04:51:16.529Z,3.50
2018-09-01T04:53:45.046Z,4.53
2018-09-01T04:56:13.680Z,4.43
2018-09-01T04:58:42.410Z,4.20
2018-09-01T05:01:11.132Z,4.20
2018-09-01T05:03:39.544Z,3.87
2018-09-01T05:06:08.170Z,4.27
2018-09-01T05:08:36.741Z,4.43
2018-09-01T05:11:05.337Z,4.28
2018-09-01T05:13:34.762Z,4.20
2018-09-01T05:16:03.320Z,4.10
2018-09-01T05:18:31.821Z,3.95
2018-09-01T05:21:00.343Z,4.00
2018-09-01T05:23:28.973Z,4.40
2018-09-01T05:25:57.469Z,4.20
2018-09-01T05:28:26.109Z,3.50
2018-09-01T05:30:54.690Z,4.33
2018-09-01T05:33:23.254Z,4.12
2018-09-01T05:35:52.768Z,4.03
2018-09-01T05:38:21.385Z,4.15
2018-09-01T05:40:49.858Z,4.40
2018-09-01T05:43:18.377Z,4.50
2018-09-01T05:45:46.896Z,4.40
2018-09-01T05:48:15.226Z,4.10
2018-09-01T05:50:43.519Z,3.87
2018-09-01T05:53:12.900Z,4.60
2018-09-01T05:55:41.125Z,5.30
2018-09-01T05:58:09.398Z,5.03
2018-09-01T06:00:41.929Z,4.25
2018-09-01T06:03:10.105Z,3.50
2018-09-01T06:05:39.373Z,3.73
2018-09-01T06:08:07.700Z,3.80
2018-09-01T06:10:36.008Z,3.50
2018-09-01T06:13:04.232Z,3.72
2018-09-01T06:15:32.566Z,3.30
2018-09-01T06:18:01.901Z,3.87
2018-09-01T06:20:30.217Z,3.17
2018-09-01T06:22:58.694Z,3.53
2018-09-01T06:25:27.055Z,3.50
2018-09-01T06:27:57.830Z,3.30
2018-09-01T06:30:31.677Z,2.87
2018-09-01T06:33:00.115Z,3.43
2018-09-01T06:35:28.391Z,3.30
2018-09-01T06:37:56.768Z,3.43
2018-09-01T06:40:25.083Z,2.90
2018-09-01T06:42:53.497Z,2.60
2018-09-01T06:45:21.733Z,2.75
2018-09-01T06:47:50.181Z,2.70
2018-09-01T06:50:18.518Z,2.40
2018-09-01T06:52:46.902Z,2.87
2018-09-01T06:55:15.177Z,2.27
2018-09-01T06:57:43.573Z,2.40
2018-09-01T07:00:11.970Z,2.63
2018-09-01T07:02:40.267Z,2.15
2018-09-01T07:05:08.698Z,2.43
2018-09-01T07:07:37.080Z,1.87
2018-09-01T07:10:05.768Z,1.80
2018-09-01T07:12:34.225Z,1.82
2018-09-01T07:15:03.329Z,1.90
2018-09-01T07:17:31.739Z,1.60
2018-09-01T07:20:00.301Z,2.07
2018-09-01T07:22:28.693Z,1.92
2018-09-01T07:24:57.164Z,1.90
2018-09-01T07:27:26.011Z,2.37
2018-09-01T07:30:05.385Z,1.77
2018-09-01T07:32:33.919Z,2.17
2018-09-01T07:35:02.851Z,2.25
2018-09-01T07:37:35.556Z,1.77
2018-09-01T07:40:06.022Z,1.60
2018-09-01T07:42:36.381Z,1.87
2018-09-01T07:45:05.183Z,1.70
2018-09-01T07:47:44.413Z,1.60
2018-09-01T07:50:13.020Z,1.87
2018-09-01T07:52:41.469Z,1.77
2018-09-01T07:55:10.186Z,1.47
2018-09-01T07:57:50.598Z,1.70
2018-09-01T08:03:04.561Z,1.50
2018-09-01T08:05:33.216Z,1.77
2018-09-01T08:08:02.072Z,1.70
2018-09-01T08:10:30.503Z,1.67
2018-09-01T08:12:59.152Z,1.53
2018-09-01T08:15:27.580Z,1.50
2018-09-01T08:17:56.129Z,1.72
2018-09-01T08:20:24.622Z,1.60
2018-09-01T08:22:53.984Z,1.70
2018-09-01T08:25:23.459Z,2.00
2018-09-01T08:27:53.561Z,1.70
2018-09-01T08:30:22.421Z,1.57
2018-09-01T08:32:52.517Z,1.60
2018-09-01T08:35:22.524Z,1.40
2018-09-01T08:37:51.625Z,1.60
2018-09-01T08:40:20.091Z,1.70
2018-09-01T08:42:48.358Z,1.70
2018-09-01T08:45:21.386Z,1.40
2018-09-01T08:47:50.169Z,1.70
2018-09-01T08:50:18.631Z,1.72
2018-09-01T08:52:47.003Z,1.50
2018-09-01T08:55:16.772Z,1.60
2018-09-01T08:57:45.621Z,1.40
2018-09-01T09:00:14.082Z,1.50
2018-09-01T09:02:42.346Z,1.57
2018-09-01T09:05:10.745Z,1.77
2018-09-01T09:07:39.289Z,1.50
2018-09-01T09:10:07.723Z,1.50
2018-09-01T09:12:36.478Z,1.80
2018-09-01T09:15:04.873Z,1.70
2018-09-01T09:17:33.376Z,1.70
2018-09-01T09:20:01.840Z,1.30
2018-09-01T09:22:30.601Z,1.87
2018-09-01T09:24:58.997Z,1.60
2018-09-01T09:27:27.471Z,1.40
2018-09-01T09:29:55.945Z,1.87
2018-09-01T09:32:24.397Z,1.80
2018-09-01T09:34:53.691Z,1.50
2018-09-01T09:37:22.754Z,1.47
2018-09-01T09:39:51.631Z,1.23
2018-09-01T09:42:19.951Z,1.50
2018-09-01T09:44:48.274Z,1.50
2018-09-01T09:47:16.538Z,1.40
2018-09-01T09:49:44.930Z,1.57
2018-09-01T09:52:13.477Z,1.15
2018-09-01T09:54:41.795Z,1.50
2018-09-01T09:57:10.069Z,1.40
2018-09-01T09:59:38.433Z,1.67
2018-09-01T10:02:06.849Z,1.25
2018-09-01T10:04:35.124Z,1.60
2018-09-01T10:07:03.350Z,1.40
2018-09-01T10:09:31.609Z,1.53
2018-09-01T10:11:59.918Z,1.40
2018-09-01T10:14:28.385Z,1.45
2018-09-01T10:16:57.042Z,1.40
2018-09-01T10:19:25.294Z,1.47
2018-09-01T10:21:53.598Z,1.70
2018-09-01T10:24:21.912Z,1.20
2018-09-01T10:26:50.257Z,1.43
2018-09-01T10:29:18.541Z,1.30
2018-09-01T10:31:47.033Z,1.60
2018-09-01T10:34:15.358Z,1.53
2018-09-01T10:36:44.354Z,1.60
2018-09-01T10:39:13.457Z,1.83
2018-09-01T10:41:42.554Z,1.70
2018-09-01T10:44:12.194Z,1.50
2018-09-01T10:46:41.291Z,1.53
2018-09-01T10:49:10.713Z,1.37
2018-09-01T10:51:39.922Z,1.33
2018-09-01T10:54:08.217Z,1.67
2018-09-01T10:56:36.468Z,1.40
2018-09-01T10:59:05.176Z,1.40
2018-09-01T11:01:33.375Z,1.60
2018-09-01T11:04:01.674Z,1.40
2018-09-01T11:06:30.109Z,1.43
2018-09-01T11:08:58.533Z,1.60
2018-09-01T11:11:26.902Z,1.87
2018-09-01T11:13:55.156Z,1.52
2018-09-01T11:16:23.546Z,1.83
2018-09-01T11:18:53.170Z,1.43
2018-09-01T11:21:22.461Z,1.77
2018-09-01T11:23:50.799Z,1.60
2018-09-01T11:26:19.061Z,1.70
2018-09-01T11:28:47.370Z,1.72
2018-09-01T11:31:15.944Z,1.70
2018-09-01T11:33:44.454Z,1.32
2018-09-01T11:36:13.052Z,1.30
2018-09-01T11:38:43.072Z,1.50
2018-09-01T11:41:12.385Z,1.60
2018-09-01T11:43:42.055Z,2.10
2018-09-01T11:46:11.840Z,1.70
2018-09-01T11:48:41.353Z,1.43
2018-09-01T11:51:09.914Z,1.73
2018-09-01T11:53:38.241Z,1.65
2018-09-01T11:56:07.503Z,1.70
2018-09-01T11:58:35.950Z,1.35
2018-09-01T12:01:04.174Z,1.60
2018-09-01T12:03:32.401Z,1.27
2018-09-01T12:06:00.707Z,1.53
2018-09-01T12:08:29.566Z,1.57
2018-09-01T12:10:57.860Z,1.60
2018-09-01T12:13:26.162Z,1.40
2018-09-01T12:15:54.529Z,1.40
2018-09-01T12:18:22.695Z,1.70
2018-09-01T12:20:51.081Z,1.52
2018-09-01T12:23:19.330Z,1.67
2018-09-01T12:25:47.562Z,1.80
2018-09-01T12:28:16.020Z,2.08
2018-09-01T12:30:44.251Z,1.40
2018-09-01T12:33:12.599Z,1.30
2018-09-01T12:35:41.939Z,1.10
2018-09-01T12:38:10.942Z,1.50
2018-09-01T12:40:40.593Z,1.60
2018-09-01T12:43:08.850Z,1.30
2018-09-01T12:45:37.519Z,1.50
2018-09-01T12:48:05.899Z,1.67
2018-09-01T12:50:34.223Z,1.37
2018-09-01T12:53:02.556Z,1.20
2018-09-01T12:55:31.157Z,1.30
2018-09-01T12:57:59.547Z,1.40
2018-09-01T13:00:27.913Z,1.40
2018-09-01T13:02:56.145Z,1.20
2018-09-01T13:05:24.495Z,1.40
2018-09-01T13:07:52.900Z,1.42
2018-09-01T13:10:21.156Z,1.30
2018-09-01T13:12:49.517Z,1.27
2018-09-01T13:15:17.930Z,1.27
2018-09-01T13:17:46.318Z,1.30
2018-09-01T13:20:14.733Z,1.40
2018-09-01T13:22:43.138Z,1.22
2018-09-01T13:25:12.537Z,2.80
2018-09-01T13:27:41.106Z,1.60
2018-09-01T13:30:09.797Z,1.63
2018-09-01T13:32:38.053Z,1.30
2018-09-01T13:35:06.445Z,1.30
2018-09-01T13:37:35.115Z,1.77
2018-09-01T13:40:03.439Z,1.50
2018-09-01T13:42:31.680Z,1.50
2018-09-01T13:44:59.979Z,1.40
2018-09-01T13:47:28.234Z,1.30
2018-09-01T13:49:56.502Z,1.50
2018-09-01T13:52:24.792Z,1.42
2018-09-01T13:54:53.076Z,1.50
2018-09-01T13:57:21.377Z,1.50
2018-09-01T13:59:49.581Z,1.40
2018-09-01T14:02:17.845Z,1.30
2018-09-01T14:04:46.365Z,1.27
2018-09-01T14:07:14.713Z,1.43
2018-09-01T14:09:43.082Z,1.40
2018-09-01T14:12:12.704Z,1.70
2018-09-01T14:14:41.865Z,1.60
2018-09-01T14:17:11.230Z,1.50
2018-09-01T14:19:40.242Z,1.40
2018-09-01T14:22:09.853Z,1.40
2018-09-01T14:24:38.169Z,1.20
2018-09-01T14:27:06.402Z,1.83
2018-09-01T14:29:34.651Z,1.05
2018-09-01T14:32:03.025Z,1.47
2018-09-01T14:34:31.341Z,1.40
2018-09-01T14:36:59.761Z,1.30
2018-09-01T14:39:27.969Z,1.30
2018-09-01T14:41:56.185Z,1.60
2018-09-01T14:44:24.420Z,1.30
2018-09-01T14:46:52.735Z,1.57
2018-09-01T14:49:20.927Z,2.10
2018-09-01T14:51:49.199Z,1.70
2018-09-01T14:54:17.604Z,1.85
2018-09-01T14:56:45.989Z,1.50
2018-09-01T14:59:14.452Z,1.22
2018-09-01T15:01:42.955Z,1.47
2018-09-01T15:04:12.604Z,1.87
2018-09-01T15:06:41.179Z,1.80
2018-09-01T15:09:10.240Z,1.50
2018-09-01T15:11:39.876Z,1.60
2018-09-01T15:14:08.330Z,1.40
2018-09-01T15:16:36.580Z,1.50
2018-09-01T15:19:04.861Z,1.20
2018-09-01T15:21:33.138Z,1.30
2018-09-01T15:24:01.453Z,1.50
2018-09-01T15:26:30.011Z,1.40
2018-09-01T15:28:58.293Z,1.73
2018-09-01T15:31:26.590Z,1.60
2018-09-01T15:33:54.889Z,1.80
2018-09-01T15:36:23.245Z,1.43
2018-09-01T15:38:51.550Z,1.20
2018-09-01T15:41:19.827Z,1.60
2018-09-01T15:43:48.097Z,1.40
2018-09-01T15:46:16.364Z,1.27
2018-09-01T15:48:44.861Z,1.60
2018-09-01T15:51:13.170Z,1.35
2018-09-01T15:53:42.574Z,1.50
2018-09-01T15:56:11.942Z,1.30
2018-09-01T15:58:41.127Z,1.47
2018-09-01T16:01:10.350Z,1.50
2018-09-01T16:03:39.467Z,1.30
2018-09-01T16:06:08.069Z,1.67
2018-09-01T16:08:36.498Z,1.37
2018-09-01T16:11:05.083Z,1.20
2018-09-01T16:13:33.458Z,2.13
2018-09-01T16:16:01.778Z,1.83
2018-09-01T16:18:30.046Z,1.40
2018-09-01T16:20:58.253Z,1.10
2018-09-01T16:23:26.751Z,1.30
2018-09-01T16:25:55.075Z,1.43
2018-09-01T16:28:23.402Z,1.27
2018-09-01T16:30:51.986Z,1.30
2018-09-01T16:33:20.223Z,1.35
2018-09-01T16:35:48.649Z,1.20
2018-09-01T16:38:17.213Z,1.27
2018-09-01T16:40:45.636Z,1.13
2018-09-01T16:43:14.631Z,1.30
2018-09-01T16:45:43.851Z,1.23
2018-09-01T16:48:13.604Z,1.80
2018-09-01T16:50:43.025Z,1.60
2018-09-01T16:53:12.218Z,1.47
2018-09-01T16:55:42.260Z,1.50
2018-09-01T16:58:10.517Z,1.63
2018-09-01T17:00:39.526Z,1.50
2018-09-01T17:03:07.821Z,1.60
2018-09-01T17:05:36.056Z,1.45
2018-09-01T17:08:04.333Z,1.73
2018-09-01T17:10:32.994Z,1.60
2018-09-01T17:13:01.303Z,1.70
2018-09-01T17:15:29.565Z,1.40
2018-09-01T17:17:57.873Z,1.70
2018-09-01T17:20:26.131Z,1.47
2018-09-01T17:22:54.389Z,1.62
2018-09-01T17:25:22.558Z,1.60
2018-09-01T17:27:51.324Z,1.70
2018-09-01T17:30:19.538Z,1.50
2018-09-01T17:32:48.021Z,1.60
2018-09-01T17:35:16.603Z,1.60
2018-09-01T17:37:45.713Z,1.40
2018-09-01T17:40:14.744Z,1.60
2018-09-01T17:42:44.301Z,1.20
2018-09-01T17:45:13.807Z,1.50
2018-09-01T17:47:44.509Z,1.40
2018-09-01T17:50:14.953Z,1.40
2018-09-01T17:53:06.114Z,1.60
2018-09-01T17:55:34.442Z,1.70
2018-09-01T17:58:04.154Z,1.27
2018-09-01T18:00:32.762Z,1.40
2018-09-01T18:03:05.102Z,1.30
2018-09-01T18:05:33.787Z,1.50
2018-09-01T18:08:02.569Z,1.30
2018-09-01T18:10:30.793Z,1.20
2018-09-01T18:12:59.116Z,1.17
2018-09-01T18:15:27.369Z,1.83
2018-09-01T18:17:55.756Z,1.37
2018-09-01T18:20:24.278Z,1.40
2018-09-01T18:22:52.673Z,1.60
2018-09-01T18:25:21.312Z,1.30
2018-09-01T18:27:50.028Z,1.40
2018-09-01T18:30:18.357Z,1.40
2018-09-01T18:32:46.684Z,1.47
2018-09-01T18:35:15.104Z,1.45
2018-09-01T18:37:43.336Z,1.20
2018-09-01T18:40:11.605Z,1.53
2018-09-01T18:42:40.031Z,1.40
2018-09-01T18:45:08.626Z,1.53
2018-09-01T18:47:37.240Z,1.70
2018-09-01T18:50:06.312Z,1.97
2018-09-01T18:52:34.618Z,1.47
2018-09-01T18:55:02.962Z,1.50
2018-09-01T18:57:31.588Z,1.60
2018-09-01T19:00:00.163Z,1.30
2018-09-01T19:02:28.535Z,1.40
2018-09-01T19:04:57.052Z,1.50
2018-09-01T19:07:25.707Z,1.60
2018-09-01T19:09:54.151Z,1.30
2018-09-01T19:12:22.403Z,1.40
2018-09-01T19:14:50.836Z,1.30
2018-09-01T19:17:19.182Z,1.50
2018-09-01T19:19:47.697Z,1.63
2018-09-01T19:22:16.363Z,1.27
2018-09-01T19:24:44.706Z,1.30
2018-09-01T19:27:13.062Z,1.52
2018-09-01T19:29:41.343Z,1.40
2018-09-01T19:32:09.612Z,1.40
2018-09-01T19:34:37.904Z,1.52
2018-09-01T19:37:06.167Z,1.90
2018-09-01T19:39:34.443Z,1.40
2018-09-01T19:42:02.781Z,1.50
2018-09-01T19:44:36.886Z,1.60
2018-09-01T19:47:05.642Z,2.30
2018-09-01T19:49:34.208Z,1.60
2018-09-01T19:52:02.547Z,1.50
2018-09-01T19:54:30.875Z,1.23
2018-09-01T19:56:59.189Z,1.43
2018-09-01T19:59:27.486Z,1.27
2018-09-01T20:01:56.583Z,1.50
2018-09-01T20:04:24.944Z,1.42
2018-09-01T20:06:53.242Z,1.57
2018-09-01T20:09:21.698Z,1.65
2018-09-01T20:11:50.074Z,1.77
2018-09-01T20:14:18.479Z,1.55
2018-09-01T20:16:47.376Z,1.70
2018-09-01T20:19:15.774Z,1.80
2018-09-01T20:21:44.808Z,1.60
2018-09-01T20:24:13.199Z,1.60
2018-09-01T20:26:41.638Z,1.52
2018-09-01T20:29:10.099Z,1.67
2018-09-01T20:31:38.382Z,1.40
2018-09-01T20:34:07.000Z,1.60
2018-09-01T20:36:35.484Z,1.77
2018-09-01T20:39:05.059Z,1.63
2018-09-01T20:41:33.780Z,1.80
2018-09-01T20:44:02.511Z,1.75
2018-09-01T20:46:31.173Z,1.65
2018-09-01T20:48:59.998Z,1.80
2018-09-01T20:51:28.455Z,2.00
2018-09-01T20:53:57.082Z,1.80
2018-09-01T20:56:25.834Z,1.73
2018-09-01T20:58:54.345Z,1.93
2018-09-01T21:01:22.683Z,1.60
2018-09-01T21:03:51.221Z,2.00
2018-09-01T21:06:19.906Z,1.60
2018-09-01T21:08:49.244Z,1.87
2018-09-01T21:11:17.650Z,2.00
2018-09-01T21:13:45.999Z,2.20
2018-09-01T21:16:14.699Z,2.10
2018-09-01T21:18:43.411Z,2.27
2018-09-01T21:21:11.912Z,2.10
2018-09-01T21:23:40.281Z,2.08
2018-09-01T21:26:09.060Z,2.27
2018-09-01T21:28:37.509Z,2.10
2018-09-01T21:31:06.140Z,2.05
2018-09-01T21:33:34.459Z,2.70
2018-09-01T21:36:02.876Z,1.90
2018-09-01T21:38:31.730Z,2.17
2018-09-01T21:41:00.368Z,2.50
2018-09-01T21:43:28.734Z,2.15
2018-09-01T21:45:57.438Z,2.40
2018-09-01T21:48:25.786Z,2.60
2018-09-01T21:50:54.598Z,2.47
2018-09-01T21:53:22.884Z,2.40
2018-09-01T21:55:51.263Z,2.10
2018-09-01T21:58:19.816Z,2.20
2018-09-01T22:00:50.158Z,2.65
2018-09-01T22:03:19.201Z,2.53
2018-09-01T22:05:47.893Z,2.63
2018-09-01T22:08:17.008Z,2.37
2018-09-01T22:10:45.524Z,2.37
2018-09-01T22:13:13.839Z,2.30
2018-09-01T22:15:42.791Z,2.67
2018-09-01T22:18:11.196Z,2.33
2018-09-01T22:20:39.808Z,2.20
2018-09-01T22:23:08.132Z,2.30
2018-09-01T22:25:36.433Z,2.80
2018-09-01T22:28:05.005Z,2.63
2018-09-01T22:30:33.474Z,2.62
2018-09-01T22:33:01.830Z,2.50
2018-09-01T22:35:30.499Z,2.40
2018-09-01T22:37:58.856Z,2.37
2018-09-01T22:40:27.173Z,2.20
2018-09-01T22:42:55.785Z,2.63
2018-09-01T22:45:24.235Z,2.50
2018-09-01T22:47:52.955Z,2.40
2018-09-01T22:50:21.208Z,2.40
2018-09-01T22:52:49.574Z,2.33
2018-09-01T22:55:18.028Z,2.20
2018-09-01T22:57:46.547Z,2.45
2018-09-01T23:00:15.359Z,2.47
2018-09-01T23:02:43.780Z,2.27
2018-09-01T23:05:12.307Z,2.60
2018-09-01T23:07:43.323Z,2.47
2018-09-01T23:10:11.730Z,2.63
2018-09-01T23:12:40.614Z,2.10
2018-09-01T23:15:09.122Z,2.40
2018-09-01T23:17:37.441Z,2.20
2018-09-01T23:20:06.688Z,2.72
2018-09-01T23:22:35.307Z,2.20
2018-09-01T23:25:03.838Z,2.33
2018-09-01T23:27:32.173Z,2.20
2018-09-01T23:30:01.240Z,2.08
2018-09-01T23:32:29.502Z,2.10
2018-09-01T23:34:57.866Z,2.30
2018-09-01T23:37:26.479Z,2.22
2018-09-01T23:39:54.847Z,2.30
2018-09-01T23:42:23.163Z,2.25
2018-09-01T23:44:52.515Z,2.40
2018-09-01T23:47:20.811Z,2.10
2018-09-01T23:49:49.166Z,2.20
2018-09-01T23:52:17.527Z,2.57
2018-09-01T23:54:45.832Z,2.17
2018-09-01T23:57:14.605Z,2.07
2018-09-01T23:59:42.917Z,2.20
